Time;durP1;ratioP1;P1;durP2;ratioP2;P2;SDS_P1;SDS_P2;PMS_P1;PMS_P2;Temp;Humidity;BMP_temperature;BMP_pressure;BME280_temperature;BME280_humidity;BME280_pressure;Samples;Min_cycle;Max_cycle;Signal;HPM_P1;HPM_P2
2023/11/24 00:01:43;;;;;;;27.37;2.27;;;;;;;;;;4991134;28;20651;-67
2023/11/24 00:04:08;;;;;;;21.83;2.38;;;;;;;;;;4988247;28;20343;-66
2023/11/24 00:06:34;;;;;;;18.35;3.30;;;;;;;;;;4992959;28;20499;-67
2023/11/24 00:08:59;;;;;;;19.88;2.35;;;;;;;;;;4992337;28;20049;-66
2023/11/24 00:11:25;;;;;;;12.00;2.53;;;;;;;;;;4992873;28;20027;-67
2023/11/24 00:13:50;;;;;;;19.70;2.47;;;;;;;;;;4991728;28;20269;-66
2023/11/24 00:16:15;;;;;;;21.10;2.88;;;;;;;;;;4972149;28;20065;-66
2023/11/24 00:18:41;;;;;;;21.42;2.30;;;;;;;;;;4974857;28;20473;-66
2023/11/24 00:21:06;;;;;;;14.65;2.55;;;;;;;;;;4976914;28;20034;-66
2023/11/24 00:23:35;;;;;;;16.80;2.53;;;;;;;;;;4974989;28;20125;-66
2023/11/24 00:26:00;;;;;;;20.08;3.30;;;;;;;;;;4981034;28;20023;-67
2023/11/24 00:28:25;;;;;;;20.75;2.58;;;;;;;;;;4986076;28;20050;-66
2023/11/24 00:30:50;;;;;;;18.27;2.42;;;;;;;;;;4990236;28;20362;-66
2023/11/24 00:33:18;;;;;;;19.83;3.00;;;;;;;;;;4988789;28;20054;-66
2023/11/24 00:35:45;;;;;;;38.05;3.78;;;;;;;;;;4985644;28;20038;-66
2023/11/24 00:38:10;;;;;;;28.00;3.67;;;;;;;;;;4984379;28;20432;-67
2023/11/24 00:40:35;;;;;;;20.73;3.10;;;;;;;;;;4988466;28;20026;-66
2023/11/24 00:43:01;;;;;;;30.13;3.67;;;;;;;;;;4990549;28;20340;-66
2023/11/24 00:45:27;;;;;;;21.20;2.58;;;;;;;;;;4991107;28;20297;-67
2023/11/24 00:47:52;;;;;;;27.92;4.10;;;;;;;;;;4990809;28;20729;-66
2023/11/24 00:50:18;;;;;;;25.17;4.50;;;;;;;;;;4989679;28;20030;-66
2023/11/24 00:52:43;;;;;;;28.63;3.17;;;;;;;;;;4991840;28;20018;-67
2023/11/24 00:55:08;;;;;;;25.33;3.23;;;;;;;;;;4988267;28;20273;-66
2023/11/24 00:57:33;;;;;;;28.70;3.97;;;;;;;;;;4990466;28;20741;-66
2023/11/24 00:59:58;;;;;;;30.02;3.95;;;;;;;;;;4989512;28;20268;-66
2023/11/24 01:02:24;;;;;;;29.80;4.32;;;;;;;;;;4991104;28;20038;-67
2023/11/24 01:04:49;;;;;;;23.48;2.90;;;;;;;;;;4986238;28;20015;-66
2023/11/24 01:07:15;;;;;;;28.55;2.90;;;;;;;;;;4976534;28;20022;-66
2023/11/24 01:09:41;;;;;;;22.15;3.13;;;;;;;;;;4984742;28;20019;-66
2023/11/24 01:12:06;;;;;;;17.55;2.75;;;;;;;;;;4979311;28;20148;-66
2023/11/24 01:14:31;;;;;;;27.40;2.65;;;;;;;;;;4978511;28;20116;-67
2023/11/24 01:16:57;;;;;;;21.15;2.90;;;;;;;;;;4989620;28;20626;-66
2023/11/24 01:19:22;;;;;;;26.58;3.35;;;;;;;;;;4980820;28;21833;-66
2023/11/24 01:21:47;;;;;;;33.27;3.60;;;;;;;;;;4979347;28;20027;-66
2023/11/24 01:24:12;;;;;;;35.70;3.13;;;;;;;;;;4979562;28;20317;-66
2023/11/24 01:26:37;;;;;;;20.80;3.80;;;;;;;;;;4980057;28;20776;-66
2023/11/24 01:29:02;;;;;;;30.35;3.90;;;;;;;;;;4974941;28;20313;-66
2023/11/24 01:31:30;;;;;;;34.17;3.08;;;;;;;;;;4982235;28;20014;-66
2023/11/24 01:33:55;;;;;;;35.35;3.53;;;;;;;;;;4990268;28;20017;-66
2023/11/24 01:36:21;;;;;;;22.73;3.80;;;;;;;;;;4982966;28;20019;-66
2023/11/24 01:38:46;;;;;;;22.30;4.65;;;;;;;;;;4983737;28;20018;-66
2023/11/24 01:41:11;;;;;;;30.88;2.63;;;;;;;;;;4986449;28;20026;-66
2023/11/24 01:43:37;;;;;;;16.40;2.77;;;;;;;;;;4974202;28;20073;-66
2023/11/24 01:46:05;;;;;;;16.73;3.10;;;;;;;;;;4985681;28;20285;-67
2023/11/24 01:48:30;;;;;;;17.52;2.03;;;;;;;;;;4974596;28;20011;-66
2023/11/24 01:50:56;;;;;;;9.57;1.90;;;;;;;;;;4981033;28;20034;-66
2023/11/24 01:53:21;;;;;;;14.70;2.58;;;;;;;;;;4979579;28;20022;-66
2023/11/24 01:55:47;;;;;;;15.68;2.10;;;;;;;;;;4984580;28;20019;-66
2023/11/24 01:58:12;;;;;;;17.70;2.78;;;;;;;;;;4985620;28;20022;-66
2023/11/24 02:00:38;;;;;;;16.33;1.83;;;;;;;;;;4979844;28;20022;-66
2023/11/24 02:03:03;;;;;;;25.98;3.22;;;;;;;;;;4979454;28;20112;-66
2023/11/24 02:05:28;;;;;;;14.45;2.35;;;;;;;;;;4982184;28;20489;-66
2023/11/24 02:07:54;;;;;;;17.77;2.53;;;;;;;;;;4966180;28;20430;-66
2023/11/24 02:10:20;;;;;;;13.25;3.00;;;;;;;;;;4984561;28;20266;-66
2023/11/24 02:12:45;;;;;;;21.50;2.75;;;;;;;;;;4977808;28;20010;-66
2023/11/24 02:15:11;;;;;;;30.90;2.83;;;;;;;;;;4983135;28;20081;-66
2023/11/24 02:17:36;;;;;;;21.77;3.20;;;;;;;;;;4980799;28;20100;-66
2023/11/24 02:20:05;;;;;;;19.17;2.58;;;;;;;;;;4988549;28;20041;-66
2023/11/24 02:22:35;;;;;;;25.57;3.03;;;;;;;;;;4981074;28;20026;-66
2023/11/24 02:25:00;;;;;;;24.17;4.07;;;;;;;;;;4981842;28;20022;-67
2023/11/24 02:27:25;;;;;;;27.40;2.57;;;;;;;;;;4982932;28;21501;-67
2023/11/24 02:29:51;;;;;;;39.77;7.00;;;;;;;;;;4987369;28;20265;-66
2023/11/24 02:32:17;;;;;;;14.50;2.10;;;;;;;;;;4988148;28;20273;-66
2023/11/24 02:34:42;;;;;;;34.65;3.22;;;;;;;;;;4978920;28;20030;-67
2023/11/24 02:37:07;;;;;;;31.17;3.42;;;;;;;;;;4984214;28;20033;-66
2023/11/24 02:39:32;;;;;;;15.07;3.80;;;;;;;;;;4980644;28;20060;-66
2023/11/24 02:41:58;;;;;;;19.88;2.25;;;;;;;;;;4980729;28;21960;-66
2023/11/24 02:44:23;;;;;;;34.50;2.97;;;;;;;;;;4974278;28;20572;-66
2023/11/24 02:46:48;;;;;;;21.58;2.78;;;;;;;;;;4977440;28;20046;-66
2023/11/24 02:49:13;;;;;;;23.52;3.22;;;;;;;;;;4974132;28;20488;-66
2023/11/24 02:51:39;;;;;;;21.88;2.45;;;;;;;;;;4978383;28;20015;-66
2023/11/24 02:54:04;;;;;;;23.55;3.10;;;;;;;;;;4980628;28;20019;-66
2023/11/24 02:56:29;;;;;;;40.28;4.28;;;;;;;;;;4987137;28;20112;-66
2023/11/24 02:58:55;;;;;;;19.70;2.30;;;;;;;;;;4989363;28;20023;-66
2023/11/24 03:01:20;;;;;;;22.27;2.93;;;;;;;;;;4974103;28;20764;-66
2023/11/24 03:03:46;;;;;;;16.40;2.72;;;;;;;;;;4979622;28;20352;-66
2023/11/24 03:06:12;;;;;;;30.42;3.50;;;;;;;;;;4979206;28;20027;-66
2023/11/24 03:08:39;;;;;;;24.98;2.42;;;;;;;;;;4977892;28;20011;-66
2023/11/24 03:11:06;;;;;;;30.60;3.10;;;;;;;;;;4979468;28;20019;-66
2023/11/24 03:13:31;;;;;;;32.22;4.07;;;;;;;;;;4980396;28;20034;-66
2023/11/24 03:15:56;;;;;;;30.65;3.08;;;;;;;;;;4980817;28;20031;-66
2023/11/24 03:18:22;;;;;;;38.40;3.35;;;;;;;;;;4988038;28;20058;-66
2023/11/24 03:20:48;;;;;;;19.42;2.33;;;;;;;;;;4984147;28;20482;-66
2023/11/24 03:23:13;;;;;;;25.60;6.17;;;;;;;;;;4979570;28;20070;-66
2023/11/24 03:25:38;;;;;;;14.07;2.20;;;;;;;;;;4986023;28;20367;-66
2023/11/24 03:28:03;;;;;;;21.85;2.50;;;;;;;;;;4984635;28;20396;-66
2023/11/24 03:30:30;;;;;;;21.98;2.80;;;;;;;;;;4987448;28;20029;-66
2023/11/24 03:32:55;;;;;;;21.27;3.88;;;;;;;;;;4976313;28;20011;-66
2023/11/24 03:35:20;;;;;;;22.88;2.63;;;;;;;;;;4984810;28;20390;-66
2023/11/24 03:37:45;;;;;;;29.75;3.13;;;;;;;;;;4986844;28;20057;-66
2023/11/24 03:40:11;;;;;;;33.15;2.60;;;;;;;;;;4989406;28;20026;-66
2023/11/24 03:42:36;;;;;;;19.08;2.47;;;;;;;;;;4971255;28;20117;-66
2023/11/24 03:45:01;;;;;;;14.02;2.90;;;;;;;;;;4979818;28;20050;-66
2023/11/24 03:47:28;;;;;;;27.27;2.95;;;;;;;;;;4991759;28;20111;-66
2023/11/24 03:49:54;;;;;;;18.83;3.33;;;;;;;;;;4985618;28;20021;-66
2023/11/24 03:52:19;;;;;;;20.48;3.03;;;;;;;;;;4986363;28;20022;-66
2023/11/24 03:54:44;;;;;;;28.88;3.15;;;;;;;;;;4984649;28;20033;-66
2023/11/24 03:57:10;;;;;;;34.17;3.70;;;;;;;;;;4986170;28;20045;-66
2023/11/24 03:59:35;;;;;;;20.55;2.58;;;;;;;;;;4985723;28;20022;-66
2023/11/24 04:02:01;;;;;;;26.70;3.60;;;;;;;;;;4991604;28;20077;-66
2023/11/24 04:04:26;;;;;;;16.80;2.43;;;;;;;;;;4983107;28;20018;-66
2023/11/24 04:06:52;;;;;;;21.50;3.03;;;;;;;;;;4985000;28;20705;-66
2023/11/24 04:09:18;;;;;;;18.75;2.88;;;;;;;;;;4990435;28;20533;-66
2023/11/24 04:11:43;;;;;;;14.00;2.88;;;;;;;;;;4984967;28;20069;-66
2023/11/24 04:14:08;;;;;;;25.97;3.47;;;;;;;;;;4985570;28;20098;-66
2023/11/24 04:16:33;;;;;;;25.02;3.75;;;;;;;;;;4977298;28;20288;-66
2023/11/24 04:18:58;;;;;;;15.37;2.27;;;;;;;;;;4991982;28;20018;-66
2023/11/24 04:21:24;;;;;;;18.60;2.95;;;;;;;;;;4988044;28;20300;-66
2023/11/24 04:23:49;;;;;;;23.47;2.67;;;;;;;;;;4986370;28;20133;-66
2023/11/24 04:26:14;;;;;;;11.33;2.10;;;;;;;;;;4990885;28;20289;-66
2023/11/24 04:28:39;;;;;;;16.20;1.70;;;;;;;;;;4991696;28;20258;-66
2023/11/24 04:31:04;;;;;;;19.17;2.20;;;;;;;;;;4991042;28;20718;-66
2023/11/24 04:33:30;;;;;;;15.20;1.90;;;;;;;;;;4981838;28;20269;-66
2023/11/24 04:35:55;;;;;;;17.17;2.35;;;;;;;;;;4989541;28;20285;-66
2023/11/24 04:38:20;;;;;;;18.33;2.00;;;;;;;;;;4988648;28;20045;-66
2023/11/24 04:40:45;;;;;;;14.30;1.45;;;;;;;;;;4986542;28;20033;-66
2023/11/24 04:43:11;;;;;;;19.17;1.83;;;;;;;;;;4988939;28;20030;-66
2023/11/24 04:45:36;;;;;;;12.75;1.60;;;;;;;;;;4974970;28;20789;-66
2023/11/24 04:48:02;;;;;;;12.23;2.22;;;;;;;;;;4981239;28;20397;-66
2023/11/24 04:50:27;;;;;;;17.23;1.85;;;;;;;;;;4985132;28;20038;-67
2023/11/24 04:52:52;;;;;;;13.40;1.77;;;;;;;;;;4984832;28;20022;-66
2023/11/24 04:55:17;;;;;;;10.05;1.75;;;;;;;;;;4985469;28;20250;-66
2023/11/24 04:57:49;;;;;;;16.20;2.00;;;;;;;;;;4991486;28;20033;-66
2023/11/24 05:00:14;;;;;;;23.10;2.17;;;;;;;;;;4978615;28;20286;-66
2023/11/24 05:02:39;;;;;;;15.82;1.88;;;;;;;;;;4981074;28;20047;-66
2023/11/24 05:05:05;;;;;;;19.83;2.07;;;;;;;;;;4981927;28;20550;-66
2023/11/24 05:07:31;;;;;;;10.88;2.10;;;;;;;;;;4988490;28;20737;-66
2023/11/24 05:09:56;;;;;;;12.82;1.63;;;;;;;;;;4988971;28;20037;-66
2023/11/24 05:12:21;;;;;;;12.68;1.52;;;;;;;;;;4987148;28;20101;-66
2023/11/24 05:14:46;;;;;;;5.70;1.53;;;;;;;;;;4976585;28;20022;-66
2023/11/24 05:17:12;;;;;;;9.30;1.67;;;;;;;;;;4991177;28;20728;-66
2023/11/24 05:19:37;;;;;;;14.68;1.45;;;;;;;;;;4958315;28;20270;-66
2023/11/24 05:22:03;;;;;;;14.02;1.40;;;;;;;;;;4989066;28;20449;-66
2023/11/24 05:24:28;;;;;;;15.43;1.63;;;;;;;;;;4987499;28;20479;-66
2023/11/24 05:26:53;;;;;;;11.20;1.48;;;;;;;;;;4984792;28;20062;-66
2023/11/24 05:29:18;;;;;;;10.73;1.20;;;;;;;;;;4978363;28;20138;-66
2023/11/24 05:31:43;;;;;;;6.53;1.43;;;;;;;;;;4982909;28;20117;-66
2023/11/24 05:34:09;;;;;;;10.20;1.33;;;;;;;;;;4986666;28;20292;-66
2023/11/24 05:36:34;;;;;;;10.50;1.58;;;;;;;;;;4973273;28;20030;-66
2023/11/24 05:38:59;;;;;;;10.15;1.70;;;;;;;;;;4985177;28;20034;-67
2023/11/24 05:41:26;;;;;;;11.95;1.63;;;;;;;;;;4982592;28;20033;-66
2023/11/24 05:43:51;;;;;;;10.30;1.58;;;;;;;;;;4985222;28;20030;-66
2023/11/24 05:46:16;;;;;;;9.43;1.02;;;;;;;;;;4981170;28;20038;-66
2023/11/24 05:48:41;;;;;;;9.90;1.73;;;;;;;;;;4981282;28;20382;-66
2023/11/24 05:51:07;;;;;;;16.48;1.48;;;;;;;;;;4988247;28;20018;-66
2023/11/24 05:53:33;;;;;;;16.23;2.00;;;;;;;;;;4979710;28;20050;-66
2023/11/24 05:55:58;;;;;;;4.85;1.02;;;;;;;;;;4980000;28;20269;-66
2023/11/24 05:58:23;;;;;;;13.82;1.75;;;;;;;;;;4984425;28;20426;-66
2023/11/24 06:00:49;;;;;;;8.53;1.37;;;;;;;;;;4987459;28;20474;-66
2023/11/24 06:03:14;;;;;;;8.85;1.25;;;;;;;;;;4985909;28;20335;-66
2023/11/24 06:05:40;;;;;;;11.60;1.70;;;;;;;;;;4970574;28;20031;-66
2023/11/24 06:08:05;;;;;;;10.15;1.08;;;;;;;;;;4987387;28;20022;-66
2023/11/24 06:10:31;;;;;;;11.60;1.65;;;;;;;;;;4986964;28;20014;-66
2023/11/24 06:12:57;;;;;;;5.60;1.30;;;;;;;;;;4989022;28;20042;-66
2023/11/24 06:15:22;;;;;;;13.80;1.80;;;;;;;;;;4982715;28;20034;-66
2023/11/24 06:17:48;;;;;;;8.30;1.42;;;;;;;;;;4989892;28;20026;-66
2023/11/24 06:20:13;;;;;;;7.07;1.42;;;;;;;;;;4987710;28;20037;-66
2023/11/24 06:22:39;;;;;;;12.10;2.10;;;;;;;;;;4988451;28;20026;-66
2023/11/24 06:25:04;;;;;;;8.13;1.85;;;;;;;;;;4983935;28;20116;-65
2023/11/24 06:27:29;;;;;;;9.55;2.10;;;;;;;;;;4983422;28;20098;-66
2023/11/24 06:29:54;;;;;;;16.63;2.42;;;;;;;;;;4982213;28;20015;-66
2023/11/24 06:32:20;;;;;;;15.60;2.13;;;;;;;;;;4983273;28;20041;-66
2023/11/24 06:34:45;;;;;;;12.85;1.63;;;;;;;;;;4973250;28;20724;-66
2023/11/24 06:37:10;;;;;;;9.65;2.05;;;;;;;;;;4983599;28;20029;-66
2023/11/24 06:39:35;;;;;;;10.98;2.30;;;;;;;;;;4983218;28;20025;-66
2023/11/24 06:42:01;;;;;;;12.80;2.67;;;;;;;;;;4984716;28;20054;-66
2023/11/24 06:44:26;;;;;;;20.52;2.00;;;;;;;;;;4986947;28;20157;-66
2023/11/24 06:46:51;;;;;;;11.75;1.55;;;;;;;;;;4984953;28;20473;-66
2023/11/24 06:49:17;;;;;;;17.02;2.95;;;;;;;;;;4982817;28;20691;-66
2023/11/24 06:51:46;;;;;;;17.90;2.58;;;;;;;;;;4978941;28;20029;-66
2023/11/24 06:54:11;;;;;;;15.20;2.20;;;;;;;;;;4982671;28;20034;-67
2023/11/24 06:56:36;;;;;;;14.73;2.40;;;;;;;;;;4988057;28;20089;-66
2023/11/24 06:59:01;;;;;;;15.48;2.53;;;;;;;;;;4979911;28;20300;-66
2023/11/24 07:01:34;;;;;;;12.88;2.53;;;;;;;;;;4986665;28;20026;-66
2023/11/24 07:04:00;;;;;;;20.27;2.92;;;;;;;;;;4986268;28;20014;-66
2023/11/24 07:06:25;;;;;;;19.05;2.30;;;;;;;;;;4985247;28;20033;-66
2023/11/24 07:08:52;;;;;;;8.20;2.33;;;;;;;;;;4981089;28;20019;-66
2023/11/24 07:11:18;;;;;;;13.45;1.58;;;;;;;;;;4981298;28;20393;-66
2023/11/24 07:13:43;;;;;;;9.43;1.50;;;;;;;;;;4979736;28;20125;-66
2023/11/24 07:16:08;;;;;;;12.02;1.60;;;;;;;;;;4982109;28;20545;-66
2023/11/24 07:18:33;;;;;;;7.27;1.03;;;;;;;;;;4986051;28;20065;-66
2023/11/24 07:20:59;;;;;;;9.13;1.23;;;;;;;;;;4983936;28;20274;-66
2023/11/24 07:23:24;;;;;;;8.90;1.10;;;;;;;;;;4985905;28;20280;-66
2023/11/24 07:25:49;;;;;;;8.30;1.23;;;;;;;;;;4989154;28;20474;-67
2023/11/24 07:28:14;;;;;;;10.75;1.60;;;;;;;;;;4981906;28;20360;-66
2023/11/24 07:30:42;;;;;;;3.85;1.00;;;;;;;;;;4981665;28;20133;-66
2023/11/24 07:33:07;;;;;;;8.68;1.00;;;;;;;;;;4978292;28;20023;-66
2023/11/24 07:35:33;;;;;;;8.53;1.17;;;;;;;;;;4986867;28;20053;-66
2023/11/24 07:37:58;;;;;;;10.07;1.40;;;;;;;;;;4988376;28;20305;-66
2023/11/24 07:40:25;;;;;;;3.87;0.90;;;;;;;;;;4987355;28;20027;-66
2023/11/24 07:42:50;;;;;;;5.82;1.08;;;;;;;;;;4985875;28;20261;-67
2023/11/24 07:45:15;;;;;;;14.90;0.90;;;;;;;;;;4980783;28;20630;-66
2023/11/24 07:47:41;;;;;;;11.63;1.08;;;;;;;;;;4986810;28;21265;-66
2023/11/24 07:50:06;;;;;;;7.85;1.40;;;;;;;;;;4985791;28;20041;-66
2023/11/24 07:52:32;;;;;;;8.18;1.13;;;;;;;;;;4986129;28;20381;-66
2023/11/24 07:54:57;;;;;;;10.80;1.13;;;;;;;;;;4960141;28;20029;-66
2023/11/24 07:57:24;;;;;;;5.75;0.98;;;;;;;;;;4975285;28;20080;-66
2023/11/24 07:59:50;;;;;;;7.88;1.10;;;;;;;;;;4977634;28;20025;-66
2023/11/24 08:02:15;;;;;;;9.77;1.30;;;;;;;;;;4977404;28;20027;-66
2023/11/24 08:04:41;;;;;;;6.00;1.10;;;;;;;;;;4984083;28;20030;-66
2023/11/24 08:07:06;;;;;;;5.80;2.05;;;;;;;;;;4977635;28;20027;-66
2023/11/24 08:09:31;;;;;;;4.17;1.23;;;;;;;;;;4979785;28;20395;-66
2023/11/24 08:11:56;;;;;;;10.87;1.40;;;;;;;;;;4984655;28;20273;-67
2023/11/24 08:14:23;;;;;;;5.35;1.50;;;;;;;;;;4983762;28;20361;-66
2023/11/24 08:16:49;;;;;;;5.28;1.27;;;;;;;;;;4986485;28;20094;-66
2023/11/24 08:19:15;;;;;;;8.57;1.30;;;;;;;;;;4981556;28;20110;-66
2023/11/24 08:21:41;;;;;;;11.65;2.03;;;;;;;;;;4989223;28;20019;-66
2023/11/24 08:24:06;;;;;;;7.80;1.40;;;;;;;;;;4987284;28;20027;-66
2023/11/24 08:26:32;;;;;;;14.00;1.55;;;;;;;;;;4990063;28;20021;-66
2023/11/24 08:28:57;;;;;;;12.70;2.10;;;;;;;;;;4989217;28;20593;-66
2023/11/24 08:31:22;;;;;;;19.87;2.93;;;;;;;;;;4984628;28;20651;-66
2023/11/24 08:33:48;;;;;;;15.57;1.77;;;;;;;;;;4985787;28;20268;-66
2023/11/24 08:36:14;;;;;;;13.13;2.47;;;;;;;;;;4981830;28;20342;-66
2023/11/24 08:38:40;;;;;;;9.18;2.35;;;;;;;;;;4987405;28;20043;-66
2023/11/24 08:41:09;;;;;;;8.93;1.60;;;;;;;;;;4983396;28;20030;-66
2023/11/24 08:43:34;;;;;;;11.32;1.70;;;;;;;;;;4986065;28;20026;-66
2023/11/24 08:45:59;;;;;;;11.18;1.92;;;;;;;;;;4985190;28;20029;-66
2023/11/24 08:48:24;;;;;;;8.00;1.40;;;;;;;;;;4989289;28;20432;-67
2023/11/24 08:50:49;;;;;;;10.43;1.13;;;;;;;;;;4981371;28;20255;-66
2023/11/24 08:53:14;;;;;;;12.87;1.07;;;;;;;;;;4981955;28;20269;-66
2023/11/24 08:55:40;;;;;;;10.40;1.35;;;;;;;;;;4987924;28;20282;-66
2023/11/24 08:58:05;;;;;;;10.05;1.52;;;;;;;;;;4982176;28;20054;-66
2023/11/24 09:00:30;;;;;;;12.18;2.03;;;;;;;;;;4978697;28;20026;-66
2023/11/24 09:02:57;;;;;;;2.63;1.00;;;;;;;;;;4991665;28;20373;-66
2023/11/24 09:05:22;;;;;;;9.18;1.55;;;;;;;;;;4982594;28;20521;-66
2023/11/24 09:07:48;;;;;;;11.95;1.40;;;;;;;;;;4982097;28;20030;-66
2023/11/24 09:10:14;;;;;;;10.50;1.20;;;;;;;;;;4979583;28;20605;-66
2023/11/24 09:12:40;;;;;;;7.80;1.35;;;;;;;;;;4987384;28;20149;-66
2023/11/24 09:15:06;;;;;;;7.07;1.08;;;;;;;;;;4982136;28;20673;-66
2023/11/24 09:17:34;;;;;;;14.30;1.60;;;;;;;;;;4988021;28;20033;-66
2023/11/24 09:19:59;;;;;;;9.32;1.25;;;;;;;;;;4984587;28;20582;-66
2023/11/24 09:22:24;;;;;;;5.37;0.83;;;;;;;;;;4989279;28;20053;-66
2023/11/24 09:24:49;;;;;;;5.57;1.30;;;;;;;;;;4985013;28;20281;-66
2023/11/24 09:27:16;;;;;;;6.60;1.10;;;;;;;;;;4984440;28;20482;-66
2023/11/24 09:29:41;;;;;;;9.88;1.48;;;;;;;;;;4978640;28;20270;-66
2023/11/24 09:32:07;;;;;;;7.93;1.10;;;;;;;;;;4988911;28;20018;-66
2023/11/24 09:34:32;;;;;;;16.75;2.40;;;;;;;;;;4988698;28;20364;-66
2023/11/24 09:36:57;;;;;;;8.07;1.58;;;;;;;;;;4989028;28;20025;-66
2023/11/24 09:39:26;;;;;;;7.18;0.90;;;;;;;;;;4988389;28;20759;-66
2023/11/24 09:41:52;;;;;;;11.35;0.93;;;;;;;;;;4990380;28;20026;-66
2023/11/24 09:44:17;;;;;;;11.15;1.40;;;;;;;;;;4985132;28;20440;-66
2023/11/24 09:46:46;;;;;;;11.57;1.67;;;;;;;;;;4986520;28;20437;-66
2023/11/24 09:49:13;;;;;;;11.07;1.40;;;;;;;;;;4981870;28;20030;-66
2023/11/24 09:51:39;;;;;;;4.32;0.88;;;;;;;;;;4989153;28;20031;-66
2023/11/24 09:54:05;;;;;;;6.40;1.25;;;;;;;;;;4985963;28;20080;-66
2023/11/24 09:56:31;;;;;;;11.55;1.30;;;;;;;;;;4979527;28;20057;-66
2023/11/24 09:58:56;;;;;;;7.40;1.50;;;;;;;;;;4976434;28;20046;-66
2023/11/24 10:01:26;;;;;;;10.73;1.30;;;;;;;;;;4988142;28;20111;-66
2023/11/24 10:03:51;;;;;;;9.10;1.00;;;;;;;;;;4976049;28;20269;-66
2023/11/24 10:06:17;;;;;;;26.48;1.95;;;;;;;;;;4987513;28;20023;-66
2023/11/24 10:08:42;;;;;;;6.95;1.58;;;;;;;;;;4989461;28;20073;-66
2023/11/24 10:11:12;;;;;;;12.73;1.90;;;;;;;;;;4979373;28;20465;-66
2023/11/24 10:13:37;;;;;;;4.13;1.33;;;;;;;;;;4988202;28;20025;-66
2023/11/24 10:16:03;;;;;;;8.35;0.82;;;;;;;;;;4979887;28;20117;-66
2023/11/24 10:18:28;;;;;;;5.22;0.95;;;;;;;;;;4982809;28;20030;-66
2023/11/24 10:20:55;;;;;;;9.05;1.00;;;;;;;;;;4976081;28;20477;-66
2023/11/24 10:23:20;;;;;;;3.95;0.90;;;;;;;;;;4987159;28;20026;-66
2023/11/24 10:25:45;;;;;;;7.65;1.02;;;;;;;;;;4984909;28;20035;-66
2023/11/24 10:28:11;;;;;;;5.70;0.93;;;;;;;;;;4984464;28;20022;-66
2023/11/24 10:30:36;;;;;;;8.10;0.63;;;;;;;;;;4988059;28;20775;-66
2023/11/24 10:33:03;;;;;;;3.77;0.90;;;;;;;;;;4987780;28;20050;-66
2023/11/24 10:35:28;;;;;;;10.20;1.15;;;;;;;;;;4985509;28;21001;-66
2023/11/24 10:37:54;;;;;;;7.18;1.17;;;;;;;;;;4987842;28;20036;-66
2023/11/24 10:40:20;;;;;;;6.50;1.05;;;;;;;;;;4985379;28;20026;-66
2023/11/24 10:42:47;;;;;;;8.15;0.82;;;;;;;;;;4988087;28;20028;-66
2023/11/24 10:45:17;;;;;;;13.13;1.83;;;;;;;;;;4984199;28;20583;-66
2023/11/24 10:47:48;;;;;;;1.60;0.73;;;;;;;;;;4984437;28;20027;-67
2023/11/24 10:50:13;;;;;;;;;;;;;;;;;;4979473;28;20026;-66
2023/11/24 10:52:44;;;;;;;3.78;0.63;;;;;;;;;;4986876;28;20461;-66
2023/11/24 10:55:10;;;;;;;6.88;1.27;;;;;;;;;;4983245;28;20034;-66
2023/11/24 10:57:36;;;;;;;8.57;1.48;;;;;;;;;;4982673;28;20085;-66
2023/11/24 11:00:03;;;;;;;9.18;1.20;;;;;;;;;;4978490;28;20050;-66
2023/11/24 11:02:28;;;;;;;6.18;1.02;;;;;;;;;;4984173;28;20061;-66
2023/11/24 11:05:14;;;;;;;9.95;1.35;;;;;;;;;;4985562;28;20030;-67
2023/11/24 11:07:54;;;;;;;4.95;1.20;;;;;;;;;;4965999;28;20059;-66
2023/11/24 11:10:25;;;;;;;;;;;;;;;;;;4988604;28;20018;-66
2023/11/24 11:12:53;;;;;;;2.60;0.90;;;;;;;;;;4983838;28;19914;-67
2023/11/24 11:15:23;;;;;;;5.38;0.88;;;;;;;;;;4977361;28;20113;-66
2023/11/24 11:18:05;;;;;;;3.50;0.80;;;;;;;;;;4983012;28;20022;-66
2023/11/24 11:20:30;;;;;;;2.53;0.55;;;;;;;;;;4988078;28;20018;-67
2023/11/24 11:23:02;;;;;;;7.68;1.30;;;;;;;;;;4986978;28;20081;-67
2023/11/24 11:25:27;;;;;;;5.22;1.25;;;;;;;;;;4986871;28;20019;-67
2023/11/24 11:27:55;;;;;;;9.25;0.98;;;;;;;;;;4981308;28;20129;-67
2023/11/24 11:30:26;;;;;;;4.40;1.17;;;;;;;;;;4981284;28;20025;-67
2023/11/24 11:33:03;;;;;;;11.57;1.35;;;;;;;;;;4986957;28;20045;-66
2023/11/24 11:35:29;;;;;;;9.45;1.45;;;;;;;;;;4988928;28;20026;-67
2023/11/24 11:37:59;;;;;;;8.50;1.50;;;;;;;;;;4989842;28;20085;-67
2023/11/24 11:40:26;;;;;;;9.45;1.30;;;;;;;;;;4988035;28;20677;-67
2023/11/24 11:42:53;;;;;;;9.43;1.20;;;;;;;;;;4986039;28;20459;-66
2023/11/24 11:45:20;;;;;;;5.80;1.23;;;;;;;;;;4987221;28;20700;-67
2023/11/24 11:47:50;;;;;;;10.00;1.48;;;;;;;;;;4971972;28;20022;-66
2023/11/24 11:50:20;;;;;;;11.63;1.58;;;;;;;;;;4989888;28;20025;-66
2023/11/24 11:52:45;;;;;;;;;;;;;;;;;;4983564;28;20086;-67
2023/11/24 11:55:10;;;;;;;11.25;1.42;;;;;;;;;;4985578;28;19910;-66
2023/11/24 11:57:35;;;;;;;8.50;1.00;;;;;;;;;;4984306;28;20026;-66
2023/11/24 12:00:01;;;;;;;9.98;1.38;;;;;;;;;;4987403;28;20382;-66
2023/11/24 12:02:26;;;;;;;4.05;0.98;;;;;;;;;;4985098;28;20030;-67
2023/11/24 12:04:52;;;;;;;9.48;0.93;;;;;;;;;;4985206;28;20544;-66
2023/11/24 12:07:18;;;;;;;7.63;0.90;;;;;;;;;;4989628;28;20033;-67
2023/11/24 12:09:45;;;;;;;4.78;0.70;;;;;;;;;;4987484;28;20023;-67
2023/11/24 12:12:10;;;;;;;5.20;0.95;;;;;;;;;;4982490;28;20058;-67
2023/11/24 12:14:41;;;;;;;4.65;1.10;;;;;;;;;;4983411;28;20054;-67
2023/11/24 12:17:06;;;;;;;4.43;0.70;;;;;;;;;;4988421;28;20029;-67
2023/11/24 12:19:33;;;;;;;7.40;0.98;;;;;;;;;;4986830;28;20023;-67
2023/11/24 12:21:59;;;;;;;3.35;1.30;;;;;;;;;;4988799;28;20509;-67
2023/11/24 12:24:26;;;;;;;6.13;1.35;;;;;;;;;;4983855;28;20035;-67
2023/11/24 12:26:52;;;;;;;2.88;0.85;;;;;;;;;;4984424;28;20030;-66
2023/11/24 12:29:18;;;;;;;6.28;0.90;;;;;;;;;;4985380;28;20390;-67
2023/11/24 12:31:43;;;;;;;3.70;0.93;;;;;;;;;;4987121;28;20069;-66
2023/11/24 12:34:15;;;;;;;3.13;0.90;;;;;;;;;;4988552;28;20453;-66
2023/11/24 12:36:41;;;;;;;2.28;0.75;;;;;;;;;;4984143;28;20074;-66
2023/11/24 12:39:06;;;;;;;5.85;0.90;;;;;;;;;;4988820;28;20026;-66
2023/11/24 12:41:31;;;;;;;1.95;0.93;;;;;;;;;;4983050;28;20027;-66
2023/11/24 12:43:59;;;;;;;2.75;0.50;;;;;;;;;;4988697;28;20034;-66
2023/11/24 12:46:24;;;;;;;4.53;0.82;;;;;;;;;;4968702;28;20799;-67
2023/11/24 12:48:59;;;;;;;0.70;0.40;;;;;;;;;;4983812;28;20018;-67
2023/11/24 12:51:25;;;;;;;3.13;0.50;;;;;;;;;;4984473;28;20027;-66
2023/11/24 12:53:50;;;;;;;4.95;0.50;;;;;;;;;;4982802;28;20069;-66
2023/11/24 12:56:15;;;;;;;2.80;0.70;;;;;;;;;;4985579;28;20080;-66
2023/11/24 12:58:40;;;;;;;9.17;1.80;;;;;;;;;;4984220;28;20104;-67
2023/11/24 13:01:08;;;;;;;2.30;0.47;;;;;;;;;;4987297;28;20369;-66
2023/11/24 13:03:34;;;;;;;5.07;1.00;;;;;;;;;;4987010;28;20297;-66
2023/11/24 13:06:00;;;;;;;3.60;0.90;;;;;;;;;;4986381;28;20465;-66
2023/11/24 13:08:25;;;;;;;6.85;1.38;;;;;;;;;;4986946;28;20258;-66
2023/11/24 13:10:53;;;;;;;9.40;2.00;;;;;;;;;;4985929;28;20474;-67
2023/11/24 13:13:20;;;;;;;10.57;2.08;;;;;;;;;;4988154;28;20018;-66
2023/11/24 13:15:46;;;;;;;2.88;1.15;;;;;;;;;;4988531;28;20041;-67
2023/11/24 13:18:11;;;;;;;8.82;1.23;;;;;;;;;;4986999;28;20035;-67
2023/11/24 13:20:37;;;;;;;6.25;1.08;;;;;;;;;;4984372;28;20022;-66
2023/11/24 13:23:03;;;;;;;5.00;0.65;;;;;;;;;;4985484;28;20033;-66
2023/11/24 13:25:28;;;;;;;14.02;1.83;;;;;;;;;;4986818;28;20203;-67
2023/11/24 13:27:54;;;;;;;5.18;1.35;;;;;;;;;;4985048;28;20022;-66
2023/11/24 13:30:21;;;;;;;11.05;1.75;;;;;;;;;;4986484;28;20022;-67
2023/11/24 13:32:47;;;;;;;9.20;1.35;;;;;;;;;;4985671;28;20018;-67
2023/11/24 13:35:15;;;;;;;8.13;1.30;;;;;;;;;;4985973;28;20408;-67
2023/11/24 13:37:42;;;;;;;14.65;1.63;;;;;;;;;;4989775;28;20425;-67
2023/11/24 13:40:11;;;;;;;11.65;1.38;;;;;;;;;;4980205;28;20426;-65
2023/11/24 13:42:37;;;;;;;10.77;1.50;;;;;;;;;;4982231;28;20034;-66
2023/11/24 13:45:03;;;;;;;14.18;1.98;;;;;;;;;;4984922;28;20114;-66
2023/11/24 13:47:28;;;;;;;13.63;3.42;;;;;;;;;;4987606;28;20481;-67
2023/11/24 13:49:54;;;;;;;23.45;1.88;;;;;;;;;;4985194;28;20014;-66
2023/11/24 13:52:19;;;;;;;10.00;2.60;;;;;;;;;;4985507;28;20018;-67
2023/11/24 13:54:44;;;;;;;18.43;2.30;;;;;;;;;;4985837;28;20761;-66
2023/11/24 13:57:09;;;;;;;14.68;2.08;;;;;;;;;;4982296;28;20294;-67
2023/11/24 13:59:35;;;;;;;10.60;2.05;;;;;;;;;;4983927;28;20109;-67
2023/11/24 14:02:00;;;;;;;18.67;1.35;;;;;;;;;;4984317;28;20085;-66
2023/11/24 14:04:26;;;;;;;15.75;3.10;;;;;;;;;;4984440;28;20383;-67
2023/11/24 14:06:51;;;;;;;15.38;2.17;;;;;;;;;;4982735;28;20022;-66
2023/11/24 14:09:17;;;;;;;10.55;2.10;;;;;;;;;;4985220;28;20073;-66
2023/11/24 14:11:50;;;;;;;16.90;1.45;;;;;;;;;;4985220;28;20085;-66
2023/11/24 14:14:15;;;;;;;9.90;2.10;;;;;;;;;;4985137;28;20018;-66
2023/11/24 14:16:41;;;;;;;11.65;2.13;;;;;;;;;;4984129;28;20118;-66
2023/11/24 14:19:07;;;;;;;8.95;2.38;;;;;;;;;;4983365;28;20473;-66
2023/11/24 14:21:33;;;;;;;11.25;3.70;;;;;;;;;;4986419;28;20449;-66
2023/11/24 14:24:03;;;;;;;11.10;1.15;;;;;;;;;;4981319;28;20022;-66
2023/11/24 14:26:28;;;;;;;12.85;1.67;;;;;;;;;;4987389;28;20401;-67
2023/11/24 14:28:54;;;;;;;16.73;2.53;;;;;;;;;;4981624;28;20026;-66